Cobbs Creek, VA

11:24 AM EDT on March 28, 2015 (GMT -0400)
APRSWXNET Hartfield VA US | | Change Station
CLOSE
Current Station
Personal Weather Station
Location: Hardyville, VA
Elevation: 19 ft
Nearby Weather Stations

Elev 19 ft 37.55 °N, 76.42 °W | Updated 23 minutes ago

Partly Cloudy
Partly Cloudy
37 °F
Feels Like 32 °F
N
7
Wind Variable Wind from NNW
Gusts 0.0 mph

Today
High -- | Low -- °F
--% Chance of Precip.
Yesterday
High -- | Low -- °F
Precip. -- in
6:57 AM 7:24 PM
Waxing Gibbous, 63% visible
Pressure 30.02 in
Visibility 10.0 miles
Clouds Scattered Clouds 5000 ft
Windchill 32 °F
Dew Point 21 °F
Humidity 51%
Rainfall in
Snow Depth Not available.
UV 5 out of 12
Pollen 9.50 out of 12
Air Quality Not available.
Flu Activity Not available.
METAR KFYJ 281515Z AUTO 31009G20KT 10SM SCT050 04/M12 A3002 RMK AO2 T00361123

More Conditions Fewer Conditions

Pressure 30.02 in
Visibility 10.0 miles
Clouds Scattered Clouds 5000 ft
Windchill 32 °F
Dew Point 21 °F
Humidity 51%
Rainfall in
Snow Depth Not available.
UV 5 out of 12
Pollen 9.50 out of 12
Air Quality Not available.
Flu Activity Not available.
METAR KFYJ 281515Z AUTO 31009G20KT 10SM SCT050 04/M12 A3002 RMK AO2 T00361123

More Conditions Fewer Conditions

10-Day Weather Forecast

Almanac

Astronomy

Mar. 28, 2015 Rise Set
Actual Time
Civil Twilight
Nautical Twilight
Astronomical Twilight
Moon
Length of Visible Light
Length of Day
Tomorrow will be .
, % of the Moon is Illuminated

Today's Extremes

State Highs State Lows

Community

WunderPhotos

Upload Photos

1,809,010 photos uploaded!

WunderBlogs® & News

Nearby

Air Quality

  Air Quality AQ Index Pollutant
Not available.

Snow Depth

Station Depth Elevation

Earthquake Activity

City Distance Mag. Time & Date
Minimum magnitude displayed is 2.5.

Coastal Water Temperatures

Place Temperature

Stations

Nearby Weather Stations

Station Location Temp. Windchill Dew Point Humidity Wind Precip. Elev Updated Type